Time;durP1;ratioP1;P1;durP2;ratioP2;P2;SDS_P1;SDS_P2;PMS_P1;PMS_P2;Temp;Humidity;BMP_temperature;BMP_pressure;BME280_temperature;BME280_humidity;BME280_pressure;Samples;Min_cycle;Max_cycle;Signal;HPM_P1;HPM_P2
2022/05/21 00:01:30;;;;;;;9.48;3.33;;;17.00;99.90;;;;;;5095283;28;20056;-71
2022/05/21 00:03:56;;;;;;;7.68;3.10;;;16.90;99.90;;;;;;5095289;28;20476;-70
2022/05/21 00:06:22;;;;;;;7.25;2.95;;;16.80;99.90;;;;;;5095274;28;20035;-71
2022/05/21 00:08:48;;;;;;;8.45;2.78;;;16.80;99.90;;;;;;5095174;28;20021;-71
2022/05/21 00:11:14;;;;;;;8.65;3.30;;;16.90;99.90;;;;;;5095152;28;20468;-71
2022/05/21 00:13:39;;;;;;;9.55;3.95;;;17.00;99.90;;;;;;5094404;28;20082;-71
2022/05/21 00:16:05;;;;;;;7.70;3.53;;;16.90;99.90;;;;;;5095355;28;20133;-71
2022/05/21 00:18:31;;;;;;;8.57;4.45;;;17.00;99.90;;;;;;5094976;28;20073;-71
2022/05/21 00:20:57;;;;;;;7.93;3.75;;;17.00;99.90;;;;;;5094983;28;20051;-71
2022/05/21 00:23:28;;;;;;;11.65;4.70;;;17.00;99.90;;;;;;5095519;28;20024;-71
2022/05/21 00:26:05;;;;;;;6.93;4.05;;;17.00;99.90;;;;;;5095303;28;20030;-71
2022/05/21 00:28:31;;;;;;;7.03;3.78;;;17.00;99.90;;;;;;5094794;28;20045;-71
2022/05/21 00:30:57;;;;;;;11.57;4.07;;;17.00;99.90;;;;;;5076917;28;20487;-71
2022/05/21 00:33:23;;;;;;;7.63;3.25;;;17.00;99.90;;;;;;5094739;28;20066;-71
2022/05/21 00:35:50;;;;;;;8.40;4.22;;;17.10;99.90;;;;;;5095270;28;20106;-71
2022/05/21 00:38:16;;;;;;;10.75;3.90;;;17.00;99.90;;;;;;5094613;28;20032;-71
2022/05/21 00:40:43;;;;;;;5.97;3.53;;;16.90;99.90;;;;;;5094551;28;20077;-71
2022/05/21 00:43:33;;;;;;;8.65;3.90;;;16.80;99.90;;;;;;5094614;28;20467;-71
2022/05/21 00:45:59;;;;;;;9.07;3.53;;;16.70;99.90;;;;;;5082947;28;20465;-72
2022/05/21 00:48:26;;;;;;;8.55;3.38;;;16.70;99.90;;;;;;5076290;28;20024;-71
2022/05/21 00:50:52;;;;;;;8.48;3.30;;;16.70;99.90;;;;;;5094454;28;20021;-71
2022/05/21 00:53:18;;;;;;;10.75;3.80;;;16.60;99.90;;;;;;5094930;28;20027;-73
2022/05/21 00:55:45;;;;;;;10.27;3.45;;;16.60;99.90;;;;;;5094573;28;20153;-73
2022/05/21 01:01:01;;;;;;;8.25;3.88;;;16.50;99.90;;;;;;5094255;28;20027;-73
2022/05/21 01:03:29;;;;;;;8.27;3.65;;;16.40;99.90;;;;;;5094234;28;20025;-73
2022/05/21 01:05:57;;;;;;;7.60;3.65;;;16.50;99.90;;;;;;5094752;28;20403;-73
2022/05/21 01:08:22;;;;;;;8.07;3.45;;;16.50;99.90;;;;;;5094074;28;20031;-73
2022/05/21 01:10:53;;;;;;;6.43;3.35;;;16.60;99.90;;;;;;5094163;28;20422;-73
2022/05/21 01:13:21;;;;;;;20.20;5.20;;;16.60;99.90;;;;;;5094445;28;20029;-72
2022/05/21 01:15:49;;;;;;;13.73;4.85;;;16.70;99.90;;;;;;5094033;28;20461;-72
2022/05/21 01:18:15;;;;;;;15.27;5.35;;;16.60;99.90;;;;;;5089675;28;20020;-73
2022/05/21 01:20:44;;;;;;;13.10;4.88;;;16.50;99.90;;;;;;5093220;28;20095;-73
2022/05/21 01:23:10;;;;;;;9.48;4.35;;;16.50;99.90;;;;;;5092400;28;20384;-73
2022/05/21 01:25:38;;;;;;;10.07;4.82;;;16.50;99.90;;;;;;5074896;28;20052;-72
2022/05/21 01:28:11;;;;;;;10.75;4.13;;;16.60;99.90;;;;;;5093132;28;20020;-73
2022/05/21 01:30:40;;;;;;;9.90;4.38;;;16.60;99.90;;;;;;5093403;28;20095;-72
2022/05/21 01:33:10;;;;;;;11.32;4.55;;;16.60;99.90;;;;;;5092458;28;20404;-72
2022/05/21 01:35:37;;;;;;;6.25;3.30;;;16.60;99.90;;;;;;5093512;28;20476;-72
2022/05/21 01:38:04;;;;;;;7.53;3.90;;;16.60;99.90;;;;;;5093601;28;20391;-73
2022/05/21 01:40:30;;;;;;;12.35;4.40;;;16.50;99.90;;;;;;5093931;28;20056;-73
2022/05/21 01:45:40;;;;;;;10.40;4.38;;;16.50;99.90;;;;;;5093535;28;20030;-73
2022/05/21 01:48:07;;;;;;;11.05;4.45;;;16.40;99.90;;;;;;5093998;28;20040;-73
2022/05/21 01:50:33;;;;;;;9.82;4.35;;;16.40;99.90;;;;;;5093904;28;20480;-73
2022/05/21 01:52:59;;;;;;;8.82;4.10;;;16.30;99.90;;;;;;5093546;28;20024;-73
2022/05/21 01:55:25;;;;;;;7.97;4.00;;;16.20;99.90;;;;;;5093494;28;20484;-73
2022/05/21 01:57:51;;;;;;;7.03;3.60;;;16.20;99.90;;;;;;5093381;28;20024;-73
2022/05/21 02:00:18;;;;;;;9.30;3.58;;;16.20;99.90;;;;;;5093477;28;20031;-73
2022/05/21 02:02:43;;;;;;;9.10;3.92;;;16.30;99.90;;;;;;5093346;28;20028;-74
2022/05/21 02:05:09;;;;;;;9.68;3.75;;;16.30;99.90;;;;;;5093695;28;20495;-73
2022/05/21 02:07:35;;;;;;;7.07;3.38;;;16.40;99.90;;;;;;5093556;28;20095;-74
2022/05/21 02:10:02;;;;;;;9.70;4.10;;;16.40;99.90;;;;;;5093651;28;20059;-73
2022/05/21 02:12:28;;;;;;;10.10;4.75;;;16.50;99.90;;;;;;5093305;28;20110;-73
2022/05/21 02:14:57;;;;;;;9.32;4.45;;;16.40;99.90;;;;;;5093335;28;20112;-73
2022/05/21 02:17:23;;;;;;;15.35;7.95;;;16.30;99.90;;;;;;5093221;28;20020;-73
2022/05/21 02:19:49;;;;;;;12.20;7.38;;;16.30;99.90;;;;;;5093706;28;20085;-73
2022/05/21 02:22:16;;;;;;;24.63;11.07;;;16.10;99.90;;;;;;5075061;28;20038;-73
2022/05/21 02:24:42;;;;;;;15.90;8.25;;;16.10;99.90;;;;;;5075915;28;20020;-73
2022/05/21 02:27:12;;;;;;;11.05;4.65;;;16.20;99.90;;;;;;5094039;28;20466;-73
2022/05/21 02:29:38;;;;;;;8.57;4.27;;;16.20;99.90;;;;;;5093199;28;20021;-73
2022/05/21 02:32:05;;;;;;;8.48;4.07;;;16.20;99.90;;;;;;5093514;28;20025;-74
2022/05/21 02:34:31;;;;;;;8.45;3.72;;;16.20;99.90;;;;;;5093481;28;20372;-74
2022/05/21 02:39:42;;;;;;;10.05;3.85;;;16.30;99.90;;;;;;5097051;28;20027;-73
2022/05/21 02:42:43;;;;;;;9.57;4.25;;;16.30;99.90;;;;;;5097249;28;20383;-73
2022/05/21 02:44:54;;;;;;;9.45;4.30;;;16.30;99.90;;;;;;5096799;28;20028;-73
2022/05/21 02:47:20;;;;;;;7.43;3.97;;;16.30;99.90;;;;;;5096713;28;20503;-73
2022/05/21 02:49:45;;;;;;;8.00;4.30;;;16.30;99.90;;;;;;5078753;28;20032;-73
2022/05/21 02:52:11;;;;;;;8.55;3.70;;;16.30;99.90;;;;;;5096789;28;20028;-73
2022/05/21 02:54:37;;;;;;;7.43;3.47;;;16.30;99.90;;;;;;5096796;28;20028;-73
2022/05/21 02:57:03;;;;;;;10.25;4.15;;;16.30;99.90;;;;;;5097289;28;20380;-73
2022/05/21 02:59:29;;;;;;;7.75;3.08;;;16.30;99.90;;;;;;5096618;28;20032;-74
2022/05/21 03:01:55;;;;;;;6.70;3.28;;;16.40;99.90;;;;;;5096800;28;20453;-74
2022/05/21 03:04:21;;;;;;;9.30;4.00;;;16.40;99.90;;;;;;5096557;28;20020;-73
2022/05/21 03:06:47;;;;;;;11.48;3.75;;;16.40;99.90;;;;;;5096419;28;20023;-74
2022/05/21 03:11:57;;;;;;;6.10;3.63;;;16.30;99.90;;;;;;5096721;28;20510;-74
2022/05/21 03:14:23;;;;;;;7.30;3.10;;;16.30;99.90;;;;;;5096366;28;20434;-74
2022/05/21 03:16:49;;;;;;;9.80;3.50;;;16.30;99.90;;;;;;5096244;28;20024;-74
2022/05/21 03:19:15;;;;;;;6.85;3.60;;;16.20;99.90;;;;;;5096840;28;20379;-74
2022/05/21 03:21:40;;;;;;;7.18;4.13;;;16.30;99.90;;;;;;5096388;28;20125;-74
2022/05/21 03:24:06;;;;;;;6.07;3.45;;;16.30;99.90;;;;;;5096146;28;20487;-74
2022/05/21 03:26:32;;;;;;;8.57;4.25;;;16.30;99.90;;;;;;5096342;28;20016;-73
2022/05/21 03:28:58;;;;;;;6.75;3.47;;;16.30;99.90;;;;;;5096602;28;20513;-74
2022/05/21 03:31:24;;;;;;;7.18;3.50;;;16.30;99.90;;;;;;5096059;28;20043;-74
2022/05/21 03:33:50;;;;;;;7.28;3.53;;;16.30;99.90;;;;;;5095971;28;20048;-73
2022/05/21 03:36:15;;;;;;;7.70;3.53;;;16.30;99.90;;;;;;5095949;28;20039;-74
2022/05/21 03:38:41;;;;;;;7.93;3.90;;;16.30;99.90;;;;;;5095868;28;20020;-73
2022/05/21 03:41:07;;;;;;;6.47;3.88;;;16.30;99.90;;;;;;5095788;28;20040;-73
2022/05/21 03:43:32;;;;;;;;;;;16.30;99.90;;;;;;5076869;28;20127;-73
2022/05/21 03:45:59;;;;;;;;;;;16.30;99.90;;;;;;5096307;28;19912;-73
2022/05/21 03:48:25;;;;;;;;;;;16.30;99.90;;;;;;5077858;28;19959;-73
2022/05/21 03:50:51;;;;;;;;;;;16.30;99.90;;;;;;5091429;22;19927;-80
2022/05/21 03:53:16;;;;;;;;;;;16.30;99.90;;;;;;5059296;28;19908;-80
2022/05/21 03:55:44;;;;;;;;;;;16.40;99.90;;;;;;5076882;28;20013;-80
2022/05/21 03:58:10;;;;;;;;;;;16.40;99.90;;;;;;5059136;28;19987;-80
2022/05/21 04:00:38;;;;;;;;;;;16.40;99.90;;;;;;5076531;28;20332;-79
2022/05/21 04:03:04;;;;;;;;;;;16.40;99.90;;;;;;5077281;28;19919;-79
2022/05/21 04:05:29;;;;;;;;;;;16.40;99.90;;;;;;5077702;28;19904;-80
2022/05/21 04:07:55;;;;;;;;;;;16.40;99.90;;;;;;5077198;28;19904;-80
2022/05/21 04:10:20;;;;;;;;;;;16.30;99.90;;;;;;5077363;28;20368;-80
2022/05/21 04:12:46;;;;;;;;;;;16.20;99.90;;;;;;5058787;28;20003;-80
2022/05/21 04:15:12;;;;;;;;;;;16.20;99.90;;;;;;5076662;28;19911;-81
2022/05/21 04:17:37;;;;;;;;;;;16.10;99.90;;;;;;5076716;28;19905;-80
2022/05/21 04:20:04;;;;;;;;;;;16.20;99.90;;;;;;5058752;28;20325;-80
2022/05/21 04:22:30;;;;;;;;;;;16.20;99.90;;;;;;5076313;28;19954;-80
2022/05/21 04:24:55;;;;;;;;;;;16.20;99.90;;;;;;5058250;28;19909;-80
2022/05/21 04:27:21;;;;;;;;;;;16.30;99.90;;;;;;5090694;28;20342;-80
2022/05/21 04:29:47;;;;;;;;;;;16.30;99.90;;;;;;5076402;28;20360;-80
2022/05/21 04:32:12;;;;;;;;;;;16.30;99.90;;;;;;5058788;28;19905;-80
2022/05/21 04:34:38;;;;;;;;;;;16.30;99.90;;;;;;5059120;28;19904;-80
2022/05/21 04:37:03;;;;;;;;;;;16.30;99.90;;;;;;5058688;28;19954;-80
2022/05/21 04:39:29;;;;;;;;;;;16.30;99.90;;;;;;5076752;28;20034;-80
2022/05/21 04:41:55;;;;;;;;;;;16.30;99.90;;;;;;5057858;28;19912;-80
2022/05/21 04:44:22;;;;;;;;;;;16.30;99.90;;;;;;5075455;28;19904;-80
2022/05/21 04:46:47;;;;;;;;;;;16.30;99.90;;;;;;5075697;28;19904;-80
2022/05/21 04:49:13;;;;;;;;;;;16.30;99.90;;;;;;5075219;28;20348;-79
2022/05/21 04:51:38;;;;;;;;;;;16.30;99.90;;;;;;5077966;28;19908;-80
2022/05/21 04:54:04;;;;;;;;;;;16.30;99.90;;;;;;5063206;28;20372;-80
2022/05/21 04:56:31;;;;;;;;;;;16.30;99.90;;;;;;5082334;28;19905;-81
2022/05/21 04:58:56;;;;;;;;;;;16.20;99.90;;;;;;5082380;28;19908;-80
2022/05/21 05:01:22;;;;;;;;;;;16.30;99.90;;;;;;5064288;28;19957;-80
2022/05/21 05:03:47;;;;;;;;;;;16.30;99.90;;;;;;5064531;28;19904;-80
2022/05/21 05:06:13;;;;;;;;;;;16.30;99.90;;;;;;5064603;28;19904;-80
2022/05/21 05:08:39;;;;;;;;;;;16.20;99.90;;;;;;5062791;28;19927;-80
2022/05/21 05:11:04;;;;;;;;;;;16.20;99.90;;;;;;5077652;28;19950;-81
2022/05/21 05:13:30;;;;;;;;;;;16.20;99.90;;;;;;5077310;28;19911;-81
2022/05/21 05:15:55;;;;;;;;;;;16.20;99.90;;;;;;5059667;28;19911;-80
2022/05/21 05:18:27;;;;;;;;;;;16.30;99.90;;;;;;5077111;28;19974;-80
2022/05/21 05:20:53;;;;;;;;;;;16.20;99.90;;;;;;5074998;28;20348;-80
2022/05/21 05:23:19;;;;;;;;;;;16.20;99.90;;;;;;5075412;28;19912;-80
2022/05/21 05:25:44;;;;;;;;;;;16.20;99.90;;;;;;5059215;28;19905;-80
2022/05/21 05:28:17;;;;;;;;;;;16.20;99.90;;;;;;5077159;28;19951;-80
2022/05/21 05:30:43;;;;;;;;;;;16.20;99.90;;;;;;5076098;28;20394;-80
2022/05/21 05:33:09;;;;;;;;;;;16.30;99.90;;;;;;5074929;28;19905;-80
2022/05/21 05:35:35;;;;;;;;;;;16.20;99.90;;;;;;5075323;28;19949;-79
2022/05/21 05:38:07;;;;;;;;;;;16.30;99.90;;;;;;5057455;28;19904;-80
2022/05/21 05:40:33;;;;;;;;;;;16.20;99.90;;;;;;5090417;28;19948;-80
2022/05/21 05:43:00;;;;;;;;;;;16.10;99.90;;;;;;5075464;28;19912;-80
2022/05/21 05:45:25;;;;;;;;;;;16.10;99.90;;;;;;5056831;28;19908;-80
2022/05/21 05:47:51;;;;;;;;;;;16.10;99.90;;;;;;5075857;28;20346;-80
2022/05/21 05:50:16;;;;;;;;;;;16.10;99.90;;;;;;5075241;28;19920;-80
2022/05/21 05:52:43;;;;;;;;;;;16.00;99.90;;;;;;5075999;28;19904;-80
2022/05/21 05:55:09;;;;;;;;;;;16.00;99.90;;;;;;5074779;28;19905;-80
2022/05/21 05:57:34;;;;;;;;;;;16.00;99.90;;;;;;5074313;28;19904;-80
2022/05/21 06:00:00;;;;;;;;;;;15.90;99.90;;;;;;5056458;28;19904;-80
2022/05/21 06:05:14;;;;;;;;;;;15.80;99.90;;;;;;5074410;28;19912;-80
2022/05/21 06:07:43;;;;;;;;;;;15.90;99.90;;;;;;5073884;28;19911;-80
2022/05/21 06:10:09;;;;;;;;;;;15.80;99.90;;;;;;5074342;28;20271;-79
2022/05/21 06:12:35;;;;;;;;;;;15.80;99.90;;;;;;5076176;28;20352;-78
2022/05/21 06:15:00;;;;;;;;;;;15.80;99.90;;;;;;5079198;28;19904;-78
2022/05/21 06:17:26;;;;;;;;;;;15.70;99.90;;;;;;5061671;28;19916;-79
2022/05/21 06:19:52;;;;;;;;;;;15.70;99.90;;;;;;5080534;28;19904;-78
2022/05/21 06:22:18;;;;;;;;;;;15.70;99.90;;;;;;5081431;28;19956;-78
2022/05/21 06:24:44;;;;;;;;;;;15.80;99.90;;;;;;5079027;28;19911;-78
2022/05/21 06:27:10;;;;;;;;;;;15.80;99.90;;;;;;5061742;28;19994;-78
2022/05/21 06:29:36;;;;;;;;;;;15.80;99.90;;;;;;5079621;28;20279;-79
2022/05/21 06:32:03;;;;;;;;;;;15.80;99.90;;;;;;5078835;28;19950;-79
2022/05/21 06:34:29;;;;;;;;;;;15.70;99.90;;;;;;5079137;28;19904;-79
2022/05/21 06:36:55;;;;;;;;;;;15.70;99.90;;;;;;5078201;28;20395;-80
2022/05/21 06:39:21;;;;;;;;;;;15.70;99.90;;;;;;5078285;28;19904;-79
2022/05/21 06:41:46;;;;;;;;;;;15.70;99.90;;;;;;5078099;28;20011;-79
2022/05/21 06:44:12;;;;;;;;;;;15.60;99.90;;;;;;5077956;28;20014;-80
2022/05/21 06:46:38;;;;;;;;;;;15.60;99.90;;;;;;5077812;28;19904;-79
2022/05/21 06:49:04;;;;;;;;;;;15.60;99.90;;;;;;5077454;28;20398;-79
2022/05/21 06:51:29;;;;;;;;;;;15.50;99.90;;;;;;5077797;28;19916;-79
2022/05/21 06:53:55;;;;;;;;;;;15.60;99.90;;;;;;5059932;28;19936;-79
2022/05/21 06:56:20;;;;;;;;;;;15.60;99.90;;;;;;5077810;28;19905;-78
2022/05/21 06:58:46;;;;;;;;;;;15.70;99.90;;;;;;5077692;28;19915;-79
2022/05/21 07:01:12;;;;;;;;;;;15.60;99.90;;;;;;5077706;28;20378;-80
2022/05/21 07:03:38;;;;;;;;;;;15.70;99.90;;;;;;5077832;28;19905;-79
2022/05/21 07:08:48;;;;;;;;;;;15.70;99.90;;;;;;5078486;28;19950;-79
2022/05/21 07:11:13;;;;;;;;;;;15.70;99.90;;;;;;5078158;28;19908;-79
2022/05/21 07:13:39;;;;;;;;;;;15.70;99.90;;;;;;5078232;28;20272;-79
2022/05/21 07:16:05;;;;;;;;;;;15.70;99.90;;;;;;5078122;28;20272;-79
2022/05/21 07:18:31;;;;;;;;;;;15.70;99.90;;;;;;5059747;28;19904;-79
2022/05/21 07:20:56;;;;;;;;;;;15.80;99.90;;;;;;5078023;28;19908;-78
2022/05/21 07:23:23;;;;;;;;;;;15.80;99.90;;;;;;5077238;28;20352;-78
2022/05/21 07:25:48;;;;;;;;;;;15.90;99.90;;;;;;5077980;28;19905;-78
2022/05/21 07:28:14;;;;;;;;;;;15.90;99.90;;;;;;5059564;28;19905;-78
2022/05/21 07:30:40;;;;;;;;;;;15.90;99.90;;;;;;5077563;28;19904;-79
2022/05/21 07:33:11;;;;;;;;;;;16.00;99.90;;;;;;5077063;28;19932;-79
2022/05/21 07:35:37;;;;;;;;;;;16.00;99.90;;;;;;5059175;28;19915;-79
2022/05/21 07:38:07;;;;;;;;;;;16.10;99.90;;;;;;5077631;28;20248;-79
2022/05/21 07:40:32;;;;;;;;;;;16.10;99.90;;;;;;5077062;28;19911;-78
2022/05/21 07:42:58;;;;;;;;;;;16.20;99.90;;;;;;5078534;28;20275;-79
2022/05/21 07:45:24;;;;;;;;;;;16.20;99.90;;;;;;5078319;28;19967;-78
2022/05/21 07:47:50;;;;;;;;;;;16.40;99.90;;;;;;5059220;28;20420;-79
2022/05/21 07:50:16;;;;;;;;;;;16.40;99.90;;;;;;5076826;28;19916;-81
2022/05/21 07:52:43;;;;;;;;;;;16.40;99.90;;;;;;5058874;28;19998;-78
2022/05/21 07:55:09;;;;;;;;;;;16.50;99.90;;;;;;5076974;28;19908;-78
2022/05/21 07:57:35;;;;;;;;;;;16.50;99.90;;;;;;5076330;28;20249;-77
2022/05/21 08:00:01;;;;;;;;;;;16.60;99.90;;;;;;5058309;28;19912;-77
2022/05/21 08:02:29;;;;;;;;;;;16.60;99.90;;;;;;5058271;28;19919;-78
2022/05/21 08:04:55;;;;;;;;;;;16.70;99.90;;;;;;5058274;28;19966;-78
2022/05/21 08:07:21;;;;;;;;;;;16.70;99.90;;;;;;5076260;28;20303;-78
2022/05/21 08:09:47;;;;;;;;;;;16.70;99.90;;;;;;5076893;28;19908;-77
2022/05/21 08:12:14;;;;;;;;;;;16.80;99.90;;;;;;5076530;28;19995;-77
2022/05/21 08:14:42;;;;;;;;;;;16.80;99.90;;;;;;5075873;28;19983;-77
2022/05/21 08:17:08;;;;;;;;;;;17.10;99.90;;;;;;5075551;28;19905;-77
2022/05/21 08:19:35;;;;;;;;;;;17.20;99.90;;;;;;5075489;28;19987;-77
2022/05/21 08:26:56;;;;;;;;;;;17.40;99.90;;;;;;5057412;28;19930;-77
2022/05/21 08:27:30;;;;;;;;;;;17.50;99.90;;;;;;5075328;28;19911;-77
2022/05/21 08:29:56;;;;;;;;;;;17.40;99.90;;;;;;5075241;28;19908;-77
2022/05/21 08:32:21;;;;;;;;;;;17.40;99.90;;;;;;5075296;28;20257;-77
2022/05/21 08:34:47;;;;;;;;;;;17.40;99.90;;;;;;5056458;28;19927;-78
2022/05/21 08:37:12;;;;;;;;;;;17.50;99.90;;;;;;5075095;28;19905;-77
2022/05/21 08:39:38;;;;;;;;;;;17.60;99.90;;;;;;5057011;28;19904;-78
2022/05/21 08:42:11;;;;;;;;;;;17.60;99.90;;;;;;5073841;28;20415;-77
2022/05/21 08:44:47;;;;;;;;;;;17.70;99.90;;;;;;5056911;28;20045;-77
2022/05/21 08:47:20;;;;;;;;;;;17.70;99.90;;;;;;5073234;28;19995;-77
2022/05/21 08:50:04;;;;;;;;;;;17.80;99.90;;;;;;5056980;28;19962;-77
2022/05/21 08:52:35;;;;;;;;;;;18.20;99.90;;;;;;5057353;28;19943;-77
2022/05/21 08:55:03;;;;;;;;;;;18.60;99.90;;;;;;5056902;28;19940;-77
2022/05/21 08:57:35;;;;;;;;;;;19.00;99.90;;;;;;5075208;28;19958;-78
2022/05/21 09:00:06;;;;;;;;;;;19.20;99.90;;;;;;5075441;28;19904;-77
2022/05/21 09:02:33;;;;;;;;;;;19.40;99.90;;;;;;5074989;28;20385;-78
2022/05/21 09:04:59;;;;;;;;;;;19.50;99.90;;;;;;5075194;28;19983;-78
2022/05/21 09:07:27;;;;;;;;;;;19.50;99.90;;;;;;5075646;28;20334;-79
2022/05/21 09:09:52;;;;;;;;;;;19.50;99.90;;;;;;5075280;28;19911;-78
2022/05/21 09:12:19;;;;;;;;;;;19.40;99.90;;;;;;5075297;28;19909;-77
2022/05/21 09:14:47;;;;;;;;;;;19.50;99.90;;;;;;5074949;28;20018;-77
2022/05/21 09:17:12;;;;;;;;;;;19.60;99.90;;;;;;5074880;28;19944;-77
2022/05/21 09:19:49;;;;;;;;;;;19.60;99.90;;;;;;5057006;28;19974;-77
2022/05/21 09:22:16;;;;;;;;;;;19.80;99.90;;;;;;5074719;28;19951;-78
2022/05/21 09:24:51;;;;;;;;;;;19.80;99.90;;;;;;5074997;28;19912;-78
2022/05/21 09:27:35;;;;;;;;;;;19.80;99.90;;;;;;5079530;28;20047;-78
2022/05/21 09:30:13;;;;;;;;;;;19.80;99.90;;;;;;5081614;28;19958;-78
2022/05/21 09:32:40;;;;;;;;;;;19.60;99.90;;;;;;5055779;28;19930;-77
2022/05/21 09:35:13;;;;;;;;;;;19.40;99.90;;;;;;5056947;28;19916;-78
2022/05/21 09:37:39;;;;;;;;;;;19.40;99.90;;;;;;5075062;28;19908;-78
2022/05/21 09:40:25;;;;;;;;;;;19.40;99.90;;;;;;5060951;28;19996;-78
2022/05/21 09:45:36;;;;;;;;;;;19.70;99.90;;;;;;5076882;28;19927;-79
2022/05/21 09:48:05;;;;;;;;;;;20.00;99.90;;;;;;5076770;28;19952;-78
2022/05/21 09:50:40;;;;;;;;;;;20.30;99.90;;;;;;5075525;28;19912;-79
2022/05/21 09:53:25;;;;;;;;;;;20.50;99.90;;;;;;5056857;28;19912;-78
2022/05/21 09:56:17;;;;;;;;;;;20.90;99.90;;;;;;5073518;28;20003;-78
2022/05/21 09:58:44;;;;;;;;;;;21.00;99.90;;;;;;5072237;28;19952;-78
2022/05/21 10:01:29;;;;;;;;;;;21.30;99.90;;;;;;5074969;28;19926;-78
2022/05/21 10:03:55;;;;;;;;;;;21.40;99.90;;;;;;5073838;28;20320;-78
2022/05/21 10:06:24;;;;;;;;;;;21.40;99.90;;;;;;5057054;28;19915;-78
2022/05/21 10:11:56;;;;;;;;;;;21.00;99.90;;;;;;5092117;28;19915;-78
2022/05/21 10:14:24;;;;;;;;;;;20.80;99.90;;;;;;5093806;28;20413;-78
2022/05/21 10:16:53;;;;;;;;;;;20.80;99.90;;;;;;5063422;28;20276;-78
2022/05/21 10:19:30;;;;;;;;;;;20.70;99.90;;;;;;5054461;28;20318;-78
2022/05/21 10:22:02;;;;;;;;;;;20.60;99.90;;;;;;5057806;28;19909;-78
2022/05/21 10:24:46;;;;;;;;;;;20.50;99.90;;;;;;5077037;28;20002;-78
2022/05/21 10:27:30;;;;;;;;;;;20.40;99.90;;;;;;5095705;28;20275;-78
2022/05/21 10:29:56;;;;;;;;;;;20.40;99.90;;;;;;5096538;28;19911;-78
2022/05/21 10:32:23;;;;;;;;;;;20.30;99.90;;;;;;5077538;28;19904;-78
2022/05/21 10:35:01;;;;;;;;;;;20.20;99.90;;;;;;5096179;28;19907;-79
2022/05/21 10:37:49;;;;;;;;;;;20.20;99.90;;;;;;5095125;28;19908;-78
2022/05/21 10:40:33;;;;;;;;;;;20.20;99.90;;;;;;5061003;28;19909;-79
2022/05/21 10:42:58;;;;;;;;;;;20.40;99.90;;;;;;5075721;28;19995;-79
2022/05/21 10:45:30;;;;;;;;;;;20.40;99.90;;;;;;5057020;28;19958;-78
2022/05/21 10:48:11;;;;;;;;;;;20.60;99.90;;;;;;5070557;28;19908;-78
2022/05/21 10:50:36;;;;;;;;;;;20.80;99.90;;;;;;5084233;28;19923;-78
2022/05/21 10:53:05;;;;;;;;;;;21.00;99.90;;;;;;5062954;28;19909;-78
2022/05/21 10:55:44;;;;;;;;;;;21.20;99.90;;;;;;5074457;28;19964;-78
2022/05/21 10:58:28;;;;;;;;;;;21.50;99.90;;;;;;5074332;28;19967;-78
2022/05/21 11:01:02;;;;;;;;;;;21.80;99.90;;;;;;5078052;28;19959;-78
2022/05/21 11:03:45;;;;;;;;;;;22.00;98.70;;;;;;5062770;28;19912;-78
2022/05/21 11:06:16;;;;;;;;;;;22.10;98.10;;;;;;5080665;28;20302;-79
2022/05/21 11:08:44;;;;;;;;;;;22.30;97.10;;;;;;5082947;28;19954;-79
2022/05/21 11:11:10;;;;;;;;;;;22.40;98.90;;;;;;5075758;28;19908;-79
2022/05/21 11:13:38;;;;;;;;;;;22.50;97.00;;;;;;5057478;28;19915;-79
2022/05/21 11:16:12;;;;;;;;;;;22.60;96.60;;;;;;5076915;28;19938;-79
2022/05/21 11:18:51;;;;;;;;;;;22.70;95.80;;;;;;5062776;28;19904;-79
2022/05/21 11:21:17;;;;;;;;;;;22.70;96.20;;;;;;5098303;28;20264;-79
2022/05/21 11:24:01;;;;;;;;;;;22.80;97.00;;;;;;5080296;28;19919;-78
2022/05/21 11:26:42;;;;;;;;;;;22.90;97.10;;;;;;5097411;28;19908;-78
2022/05/21 11:29:13;;;;;;;;;;;23.20;96.30;;;;;;5097686;28;19911;-78
2022/05/21 11:37:21;;;;;;;;;;;23.20;94.20;;;;;;5074183;28;19933;-78
2022/05/21 11:39:56;;;;;;;;;;;23.10;93.60;;;;;;5072973;28;19973;-78
2022/05/21 11:42:32;;;;;;;;;;;23.30;95.30;;;;;;5055784;28;19923;-78
2022/05/21 11:45:20;;;;;;;;;;;23.40;93.30;;;;;;5076796;28;19911;-78
2022/05/21 11:48:04;;;;;;;;;;;23.50;93.60;;;;;;5076458;28;20042;-78
2022/05/21 11:50:30;;;;;;;;;;;23.70;96.00;;;;;;5076924;28;19961;-78
2022/05/21 11:53:04;;;;;;;;;;;23.90;94.40;;;;;;5083392;28;19961;-78
2022/05/21 11:55:31;;;;;;;;;;;23.90;92.90;;;;;;5075883;28;19958;-78
2022/05/21 11:57:58;;;;;;;;;;;23.90;93.60;;;;;;5076933;28;19947;-78
2022/05/21 12:00:26;;;;;;;;;;;24.00;93.90;;;;;;5077538;28;19936;-78
2022/05/21 12:02:54;;;;;;;;;;;24.20;92.50;;;;;;5061168;28;19908;-78
2022/05/21 12:05:26;;;;;;;;;;;24.20;90.80;;;;;;5075210;28;19908;-78
2022/05/21 12:07:53;;;;;;;;;;;24.10;90.30;;;;;;5076686;28;19927;-78
2022/05/21 12:10:18;;;;;;;;;;;23.80;87.30;;;;;;5074329;28;19909;-78
2022/05/21 12:13:03;;;;;;;;;;;23.50;89.80;;;;;;5066107;28;20456;-78
2022/05/21 12:15:46;;;;;;;;;;;23.50;90.70;;;;;;5072250;28;19919;-77
2022/05/21 12:18:29;;;;;;;;;;;23.80;88.60;;;;;;5076101;28;19995;-78
2022/05/21 12:20:55;;;;;;;;;;;23.80;90.60;;;;;;5058010;28;19911;-78
2022/05/21 12:23:30;;;;;;;;;;;23.80;90.90;;;;;;5076390;28;19908;-78
2022/05/21 12:26:00;;;;;;;;;;;23.80;89.20;;;;;;5074443;28;19979;-77
2022/05/21 12:28:31;;;;;;;;;;;23.80;88.90;;;;;;5083920;28;19908;-77
2022/05/21 12:31:00;;;;;;;;;;;23.60;90.00;;;;;;5061438;28;19915;-77
2022/05/21 12:33:49;;;;;;;;;;;23.40;87.70;;;;;;5074019;28;19911;-77
2022/05/21 12:36:33;;;;;;;;;;;23.10;90.00;;;;;;5051917;28;19999;-77
2022/05/21 12:39:03;;;;;;;;;;;23.20;90.20;;;;;;5074814;28;19905;-78
2022/05/21 12:41:37;;;;;;;;;;;23.20;87.80;;;;;;5076805;28;20003;-78
2022/05/21 12:44:03;;;;;;;;;;;23.30;90.20;;;;;;5058602;28;19908;-77
2022/05/21 12:46:30;;;;;;;;;;;23.50;90.70;;;;;;5061053;28;20012;-77
2022/05/21 12:48:57;;;;;;;;;;;23.60;88.40;;;;;;5057670;28;19908;-78
2022/05/21 12:51:29;;;;;;;;;;;23.70;86.70;;;;;;5075112;28;19916;-77
2022/05/21 12:53:55;;;;;;;;;;;23.90;87.60;;;;;;5080805;28;19904;-77
2022/05/21 12:56:25;;;;;;;;;;;24.00;85.40;;;;;;5095105;28;19938;-78
2022/05/21 12:59:29;;;;;;;;;;;24.00;85.70;;;;;;5093789;28;20271;-78
2022/05/21 13:02:01;;;;;;;;;;;24.00;86.50;;;;;;4993976;28;19917;-77
2022/05/21 13:04:26;;;;;;;;;;;24.20;87.10;;;;;;5053714;28;19915;-77
2022/05/21 13:06:57;;;;;;;;;;;24.30;85.60;;;;;;5089872;28;19909;-77
2022/05/21 13:09:23;;;;;;;;;;;24.50;84.10;;;;;;5060998;28;19915;-77
2022/05/21 13:11:49;;;;;;;;;;;24.60;80.90;;;;;;5087651;28;19905;-77
2022/05/21 13:14:29;;;;;;;;;;;24.60;81.70;;;;;;5070777;28;19908;-77
2022/05/21 13:16:56;;;;;;;;;;;24.60;79.20;;;;;;5077262;28;19979;-77
2022/05/21 13:19:36;;;;;;;;;;;24.60;80.30;;;;;;5074530;28;19915;-77
2022/05/21 13:22:14;;;;;;;;;;;24.80;77.70;;;;;;5085654;28;20002;-77
2022/05/21 13:24:59;;;;;;;;;;;24.90;79.20;;;;;;5074710;28;20264;-78
2022/05/21 13:27:24;;;;;;;;;;;24.90;77.20;;;;;;5073470;28;19914;-77
2022/05/21 13:29:51;;;;;;;;;;;24.90;80.10;;;;;;5073222;28;20003;-77
2022/05/21 13:32:21;;;;;;;;;;;24.60;79.10;;;;;;5061278;28;20299;-77
2022/05/21 13:34:47;;;;;;;;;;;24.40;78.70;;;;;;5080675;28;19913;-77
2022/05/21 13:37:12;;;;;;;;;;;24.60;78.50;;;;;;5092366;28;19911;-77
2022/05/21 13:39:38;;;;;;;;;;;24.70;77.30;;;;;;5087687;28;19966;-77
2022/05/21 13:42:16;;;;;;;;;;;24.70;79.10;;;;;;5069194;28;19909;-77
2022/05/21 13:44:43;;;;;;;;;;;24.70;78.00;;;;;;5074788;28;20368;-78
2022/05/21 13:47:30;;;;;;;;;;;24.70;78.90;;;;;;5092810;28;19904;-77
2022/05/21 13:49:56;;;;;;;;;;;24.70;77.40;;;;;;5082365;28;19912;-77
2022/05/21 13:52:24;;;;;;;;;;;24.60;78.20;;;;;;5078705;28;20348;-77
2022/05/21 13:54:49;;;;;;;;;;;24.70;76.60;;;;;;5106364;23;19920;-66
2022/05/21 13:57:25;;;;;;;;;;;24.80;76.60;;;;;;5093865;28;19904;-68
2022/05/21 13:59:53;;;;;;;;;;;24.80;75.80;;;;;;5094296;28;20266;-68
2022/05/21 14:02:25;;;;;;;;;;;24.80;75.30;;;;;;5093765;28;19959;-68
2022/05/21 14:04:51;;;;;;;;;;;24.70;76.10;;;;;;5094064;28;19904;-67
2022/05/21 14:07:16;;;;;;;;;;;24.70;75.80;;;;;;5103758;28;19908;-67
2022/05/21 14:09:44;;;;;;;;;;;24.80;77.10;;;;;;5113857;28;19958;-66
2022/05/21 14:12:16;;;;;;;;;;;25.00;76.50;;;;;;5114380;28;19949;-65
2022/05/21 14:14:42;;;;;;;;;;;25.30;77.70;;;;;;5114493;28;19949;-66
2022/05/21 14:17:27;;;;;;;;;;;25.50;74.70;;;;;;5114300;28;19904;-67
2022/05/21 14:19:59;;;;;;;;;;;25.60;72.50;;;;;;5114341;28;19911;-66
2022/05/21 14:22:25;;;;;;;;;;;25.60;72.00;;;;;;5113899;28;20279;-65
2022/05/21 14:24:51;;;;;;;;;;;25.40;69.90;;;;;;5108713;28;19904;-66
2022/05/21 14:27:21;;;;;;;;;;;25.30;72.20;;;;;;5093885;28;19904;-66
2022/05/21 14:29:53;;;;;;;;;;;25.10;74.00;;;;;;5093460;28;19904;-65
2022/05/21 14:32:19;;;;;;;;;;;25.10;72.30;;;;;;5093564;28;19904;-66